createdAt,value
2022-08-19T00:08:58.699Z,99255.06
2022-08-19T00:18:31.954Z,99244.59
2022-08-19T00:28:06.463Z,99238.47
2022-08-19T00:37:40.953Z,99233.88
2022-08-19T00:47:16.137Z,99235.30
2022-08-19T00:56:52.141Z,99215.04
2022-08-19T01:06:26.737Z,99192.34
2022-08-19T01:15:59.719Z,99191.06
2022-08-19T01:25:35.899Z,99191.48
2022-08-19T01:35:09.214Z,99185.11
2022-08-19T01:44:45.717Z,99212.38
2022-08-19T01:54:22.988Z,99199.51
2022-08-19T02:03:53.243Z,99206.23
2022-08-19T02:13:29.119Z,99205.84
2022-08-19T02:23:01.703Z,99200.56
2022-08-19T02:32:36.254Z,99216.42
2022-08-19T02:42:10.326Z,99220.25
2022-08-19T02:51:45.026Z,99217.06
2022-08-19T03:01:21.370Z,99230.41
2022-08-19T03:10:54.199Z,99214.63
2022-08-19T03:20:28.450Z,99225.09
2022-08-19T03:30:02.960Z,99229.04
2022-08-19T03:39:37.604Z,99222.33
2022-08-19T03:49:14.085Z,99229.58
2022-08-19T03:58:47.617Z,99244.20
2022-08-19T04:08:19.927Z,99249.55
2022-08-19T04:17:55.800Z,99253.81
2022-08-19T04:27:29.806Z,99256.19
2022-08-19T04:37:02.294Z,99250.98
2022-08-19T04:46:39.703Z,99240.44
2022-08-19T04:56:16.561Z,99256.48
2022-08-19T05:05:46.205Z,99269.72
2022-08-19T05:15:21.058Z,99263.11
2022-08-19T05:25:12.050Z,99264.13
2022-08-19T05:34:29.995Z,99268.55
2022-08-19T05:44:06.303Z,99279.75
2022-08-19T05:53:45.407Z,99269.92
2022-08-19T05:54:47.657Z,99270.70
2022-08-19T06:04:21.607Z,99304.22
2022-08-19T06:13:59.915Z,99310.98
2022-08-19T06:23:31.446Z,99336.94
2022-08-19T06:24:34.416Z,99334.14
2022-08-19T06:25:42.324Z,99341.89
2022-08-19T06:36:18.089Z,99350.35
2022-08-19T06:37:20.509Z,99351.33
2022-08-19T06:38:24.918Z,99357.59
2022-08-19T06:39:28.970Z,99355.28
2022-08-19T06:40:32.961Z,99362.23
2022-08-19T06:41:37.089Z,99362.97
2022-08-19T06:42:39.791Z,99363.70
2022-08-19T06:43:43.840Z,99365.86
2022-08-19T06:44:48.231Z,99364.05
2022-08-19T06:45:48.730Z,99364.41
2022-08-19T06:46:53.529Z,99359.06
2022-08-19T06:47:55.306Z,99356.63
2022-08-19T06:57:29.746Z,99365.09
2022-08-19T06:58:38.119Z,99364.88
2022-08-19T06:59:42.489Z,99363.25
2022-08-19T07:00:46.394Z,99359.53
2022-08-19T07:01:54.011Z,99357.58
2022-08-19T07:03:00.179Z,99358.03
2022-08-19T07:04:00.426Z,99354.50
2022-08-19T07:05:02.827Z,99351.49
2022-08-19T07:06:07.140Z,99356.24
2022-08-19T07:15:38.358Z,99351.92
2022-08-19T07:16:42.979Z,99352.50
2022-08-19T07:17:46.722Z,99355.14
2022-08-19T07:18:51.728Z,99355.89
2022-08-19T07:19:54.688Z,99352.77
2022-08-19T07:20:56.648Z,99355.16
2022-08-19T07:21:59.221Z,99350.44
2022-08-19T07:23:01.700Z,99352.53
2022-08-19T07:24:05.476Z,99357.27
2022-08-19T07:25:09.725Z,99360.22
2022-08-19T07:26:12.009Z,99356.34
2022-08-19T07:27:15.107Z,99351.17
2022-08-19T07:28:19.688Z,99354.28
2022-08-19T07:29:19.659Z,99349.77
2022-08-19T07:30:22.210Z,99343.82
2022-08-19T07:31:24.714Z,99346.59
2022-08-19T07:32:27.363Z,99348.14
2022-08-19T07:33:30.806Z,99347.13
2022-08-19T07:34:33.292Z,99352.89
2022-08-19T07:35:37.315Z,99347.43
2022-08-19T07:36:39.763Z,99346.43
2022-08-19T07:37:42.263Z,99345.49
2022-08-19T07:38:44.785Z,99349.44
2022-08-19T07:39:47.294Z,99347.41
2022-08-19T07:40:49.813Z,99346.23
2022-08-19T07:41:52.339Z,99348.55
2022-08-19T07:42:57.046Z,99353.61
2022-08-19T07:43:59.337Z,99349.25
2022-08-19T07:45:01.882Z,99349.45
2022-08-19T07:47:48.454Z,99355.70
2022-08-19T07:48:14.164Z,99352.89
2022-08-19T07:49:18.260Z,99353.17
2022-08-19T07:50:23.868Z,99351.48
2022-08-19T07:59:53.083Z,99348.37
2022-08-19T08:00:56.068Z,99351.36
2022-08-19T08:01:58.867Z,99353.16
2022-08-19T08:11:33.803Z,99362.66
2022-08-19T08:12:39.176Z,99365.16
2022-08-19T08:13:41.548Z,99367.33
2022-08-19T08:14:44.244Z,99366.28
2022-08-19T08:15:46.820Z,99366.56
2022-08-19T08:16:51.020Z,99363.85
2022-08-19T08:17:53.464Z,99366.81
2022-08-19T08:18:56.081Z,99367.42
2022-08-19T08:19:59.604Z,99369.30
2022-08-19T08:21:02.048Z,99362.91
2022-08-19T08:22:04.614Z,99366.51
2022-08-19T08:23:08.905Z,99368.30
2022-08-19T08:24:11.354Z,99367.80
2022-08-19T08:25:13.918Z,99365.58
2022-08-19T08:26:16.783Z,99374.08
2022-08-19T08:27:22.659Z,99364.80
2022-08-19T08:28:24.477Z,99374.92
2022-08-19T08:29:26.997Z,99371.85
2022-08-19T08:30:31.117Z,99372.27
2022-08-19T08:31:32.329Z,99372.03
2022-08-19T08:32:34.933Z,99374.16
2022-08-19T08:33:37.550Z,99371.91
2022-08-19T08:34:41.661Z,99376.98
2022-08-19T08:35:45.749Z,99379.45
2022-08-19T08:36:48.150Z,99375.00
2022-08-19T08:37:51.140Z,99374.83
2022-08-19T08:40:00.423Z,99375.02
2022-08-19T08:41:02.894Z,99378.02
2022-08-19T08:42:10.111Z,99379.13
2022-08-19T08:43:10.949Z,99379.45
2022-08-19T08:44:16.010Z,99375.34
2022-08-19T08:45:17.701Z,99376.02
2022-08-19T08:46:31.754Z,99380.33
2022-08-19T08:47:23.924Z,99385.81
2022-08-19T08:48:32.376Z,99380.59
2022-08-19T08:49:34.534Z,99382.98
2022-08-19T08:50:37.062Z,99386.91
2022-08-19T08:51:39.495Z,99391.84
2022-08-19T08:52:51.890Z,99390.02
2022-08-19T08:53:55.893Z,99393.79
2022-08-19T08:54:59.495Z,99392.94
2022-08-19T08:56:01.964Z,99392.84
2022-08-19T08:57:06.070Z,99391.41
2022-08-19T08:58:10.175Z,99387.02
2022-08-19T08:59:12.539Z,99389.42
2022-08-19T09:00:15.048Z,99386.25
2022-08-19T09:01:17.535Z,99386.58
2022-08-19T09:02:21.597Z,99388.98
2022-08-19T09:03:25.616Z,99385.19
2022-08-19T09:04:28.006Z,99386.98
2022-08-19T09:05:37.687Z,99391.61
2022-08-19T09:06:33.050Z,99392.80
2022-08-19T09:07:38.794Z,99392.22
2022-08-19T09:08:41.203Z,99398.02
2022-08-19T09:09:45.236Z,99392.77
2022-08-19T09:10:47.609Z,99396.02
2022-08-19T09:11:50.171Z,99404.52
2022-08-19T09:12:52.720Z,99398.86
2022-08-19T09:13:58.264Z,99398.61
2022-08-19T09:15:00.432Z,99397.38
2022-08-19T09:16:02.922Z,99401.76
2022-08-19T09:17:07.024Z,99401.63
2022-08-19T09:18:15.213Z,99399.81
2022-08-19T09:19:13.714Z,99398.77
2022-08-19T09:20:16.298Z,99397.55
2022-08-19T09:21:24.126Z,99391.70
2022-08-19T09:22:25.918Z,99389.03
2022-08-19T09:23:26.596Z,99387.61
2022-08-19T09:24:31.148Z,99384.25
2022-08-19T09:25:33.639Z,99379.66
2022-08-19T09:26:47.727Z,99376.95
2022-08-19T09:27:42.654Z,99385.55
2022-08-19T09:28:43.876Z,99380.97
2022-08-19T09:29:46.152Z,99381.23
2022-08-19T09:30:52.896Z,99381.23
2022-08-19T09:31:55.235Z,99385.93
2022-08-19T09:32:57.738Z,99380.55
2022-08-19T09:34:01.889Z,99375.66
2022-08-19T09:35:08.663Z,99376.83
2022-08-19T09:36:08.340Z,99375.38
2022-08-19T09:37:14.414Z,99368.59
2022-08-19T09:38:16.553Z,99371.14
2022-08-19T09:39:19.058Z,99373.26
2022-08-19T09:40:21.700Z,99364.33
2022-08-19T09:41:24.141Z,99366.76
2022-08-19T09:42:30.165Z,99367.38
2022-08-19T09:43:33.390Z,99368.36
2022-08-19T09:44:31.950Z,99373.91
2022-08-19T09:45:34.545Z,99372.36
2022-08-19T09:46:38.803Z,99374.00
2022-08-19T09:47:41.332Z,99372.20
2022-08-19T09:48:44.016Z,99365.89
2022-08-19T09:49:46.564Z,99370.31
2022-08-19T09:50:51.363Z,99369.94
2022-08-19T09:51:53.425Z,99363.41
2022-08-19T09:52:57.836Z,99361.95
2022-08-19T09:53:58.662Z,99358.40
2022-08-19T09:55:07.184Z,99359.95
2022-08-19T09:56:05.150Z,99351.84
2022-08-19T09:57:07.752Z,99349.27
2022-08-19T09:58:10.136Z,99354.68
2022-08-19T09:59:14.319Z,99356.63
2022-08-19T10:00:16.819Z,99359.89
2022-08-19T10:01:19.356Z,99354.14
2022-08-19T10:02:22.112Z,99353.63
2022-08-19T10:03:29.826Z,99362.05
2022-08-19T10:04:28.304Z,99357.38
2022-08-19T10:05:30.843Z,99359.92
2022-08-19T10:06:45.557Z,99356.83
2022-08-19T10:07:38.726Z,99353.42
2022-08-19T10:08:50.143Z,99358.11
2022-08-19T10:09:45.211Z,99360.89
2022-08-19T10:10:47.715Z,99350.66
2022-08-19T10:11:54.509Z,99350.75
2022-08-19T10:12:56.075Z,99356.47
2022-08-19T10:14:01.047Z,99349.30
2022-08-19T10:15:04.998Z,99352.66
2022-08-19T10:16:07.383Z,99356.14
2022-08-19T10:17:17.627Z,99358.89
2022-08-19T10:18:12.366Z,99353.48
2022-08-19T10:19:15.005Z,99351.81
2022-08-19T10:20:18.487Z,99347.30
2022-08-19T10:21:22.565Z,99344.95
2022-08-19T10:22:25.416Z,99350.63
2022-08-19T10:23:27.387Z,99350.67
2022-08-19T10:24:29.943Z,99344.30
2022-08-19T10:25:32.420Z,99342.41
2022-08-19T10:26:34.945Z,99348.48
2022-08-19T10:27:37.550Z,99347.41
2022-08-19T10:28:40.033Z,99340.10
2022-08-19T10:29:46.335Z,99342.16
2022-08-19T10:30:46.596Z,99340.92
2022-08-19T10:32:01.548Z,99339.08
2022-08-19T10:32:51.700Z,99341.56
2022-08-19T10:33:54.311Z,99344.80
2022-08-19T10:34:57.033Z,99343.25
2022-08-19T10:35:59.247Z,99346.05
2022-08-19T10:37:02.130Z,99340.20
2022-08-19T10:38:04.533Z,99343.98
2022-08-19T10:39:06.839Z,99345.02
2022-08-19T10:40:09.424Z,99341.28
2022-08-19T10:41:11.871Z,99344.03
2022-08-19T10:42:14.608Z,99344.33
2022-08-19T10:43:16.896Z,99339.17
2022-08-19T10:52:50.781Z,99351.11
2022-08-19T10:53:52.852Z,99346.09
2022-08-19T10:54:55.370Z,99347.25
2022-08-19T10:55:57.979Z,99342.66
2022-08-19T10:57:02.005Z,99346.81
2022-08-19T10:58:06.212Z,99349.45
2022-08-19T10:59:08.297Z,99349.70
2022-08-19T11:00:10.814Z,99348.16
2022-08-19T11:01:15.087Z,99341.14
2022-08-19T11:02:18.998Z,99345.69
2022-08-19T11:03:22.997Z,99342.98
2022-08-19T11:04:25.870Z,99338.80
2022-08-19T11:05:29.651Z,99340.13
2022-08-19T11:06:32.030Z,99339.31
2022-08-19T11:07:36.138Z,99337.36
2022-08-19T11:08:40.202Z,99340.71
2022-08-19T11:09:44.179Z,99336.36
2022-08-19T11:10:50.281Z,99337.76
2022-08-19T11:11:50.718Z,99330.61
2022-08-19T11:12:53.239Z,99333.95
2022-08-19T11:13:55.812Z,99334.92
2022-08-19T11:14:58.335Z,99337.76
2022-08-19T11:16:03.937Z,99334.42
2022-08-19T11:17:03.452Z,99329.78
2022-08-19T11:18:07.792Z,99332.69
2022-08-19T11:19:11.767Z,99327.00
2022-08-19T11:20:14.353Z,99328.74
2022-08-19T11:21:18.465Z,99322.75
2022-08-19T11:22:22.528Z,99322.79
2022-08-19T11:23:25.016Z,99321.14
2022-08-19T11:24:27.487Z,99316.77
2022-08-19T11:25:30.021Z,99324.14
2022-08-19T11:26:32.618Z,99323.47
2022-08-19T11:27:35.241Z,99318.66
2022-08-19T11:28:37.764Z,99324.03
2022-08-19T11:29:40.416Z,99326.52
2022-08-19T11:30:42.975Z,99326.03
2022-08-19T11:31:45.598Z,99321.53
2022-08-19T11:32:49.479Z,99318.68
2022-08-19T11:33:52.203Z,99324.94
2022-08-19T11:34:56.208Z,99320.44
2022-08-19T11:36:00.201Z,99314.59
2022-08-19T11:37:02.589Z,99313.10
2022-08-19T11:38:08.284Z,99315.47
2022-08-19T11:39:07.778Z,99314.42
2022-08-19T11:40:12.040Z,99311.92
2022-08-19T11:41:14.389Z,99308.83
2022-08-19T11:42:17.065Z,99307.54
2022-08-19T11:43:19.639Z,99317.09
2022-08-19T11:44:23.721Z,99310.78
2022-08-19T11:45:26.166Z,99307.35
2022-08-19T11:46:28.676Z,99298.16
2022-08-19T11:47:31.182Z,99296.38
2022-08-19T11:48:33.728Z,99299.80
2022-08-19T11:49:37.895Z,99293.56
2022-08-19T11:50:44.133Z,99290.74
2022-08-19T11:51:46.405Z,99287.56
2022-08-19T11:52:49.076Z,99282.77
2022-08-19T11:53:56.582Z,99282.95
2022-08-19T11:54:58.814Z,99286.70
2022-08-19T11:56:01.343Z,99290.94
2022-08-19T11:57:03.932Z,99285.39
2022-08-19T11:58:06.433Z,99280.42
2022-08-19T11:59:12.826Z,99281.02
2022-08-19T12:08:42.312Z,99278.61
2022-08-19T12:09:44.883Z,99276.53
2022-08-19T12:10:47.384Z,99278.25
2022-08-19T12:11:49.926Z,99281.55
2022-08-19T12:12:54.719Z,99281.23
2022-08-19T12:13:58.204Z,99272.02
2022-08-19T12:15:00.535Z,99277.77
2022-08-19T12:16:04.690Z,99271.45
2022-08-19T12:17:08.627Z,99276.05
2022-08-19T12:18:12.659Z,99275.27
2022-08-19T12:19:15.050Z,99277.03
2022-08-19T12:20:17.570Z,99273.55
2022-08-19T12:21:21.663Z,99268.66
2022-08-19T12:22:25.679Z,99268.13
2022-08-19T12:23:28.263Z,99266.41
2022-08-19T12:24:30.760Z,99270.48
2022-08-19T12:25:33.332Z,99274.36
2022-08-19T12:26:35.980Z,99275.66
2022-08-19T12:27:40.551Z,99276.02
2022-08-19T12:28:40.969Z,99273.57
2022-08-19T12:29:43.442Z,99276.16
2022-08-19T12:30:46.016Z,99269.19
2022-08-19T12:31:48.556Z,99276.27
2022-08-19T12:32:51.033Z,99277.08
2022-08-19T12:33:53.606Z,99282.73
2022-08-19T12:34:56.094Z,99273.55
2022-08-19T12:36:00.291Z,99277.85
2022-08-19T12:37:02.672Z,99276.83
2022-08-19T12:38:05.224Z,99277.57
2022-08-19T12:39:07.797Z,99278.34
2022-08-19T12:40:10.423Z,99285.94
2022-08-19T12:41:12.881Z,99279.06
2022-08-19T12:42:16.949Z,99272.33
2022-08-19T12:43:19.412Z,99266.33
2022-08-19T12:44:27.660Z,99265.45
2022-08-19T12:45:24.416Z,99283.50
2022-08-19T12:46:28.570Z,99273.17
2022-08-19T12:47:31.028Z,99269.27
2022-08-19T12:48:35.239Z,99267.42
2022-08-19T12:49:53.039Z,99262.98
2022-08-19T12:50:40.162Z,99264.53
2022-08-19T12:51:42.645Z,99265.52
2022-08-19T12:52:45.203Z,99265.56
2022-08-19T12:53:47.779Z,99265.34
2022-08-19T12:54:50.285Z,99265.45
2022-08-19T12:55:54.409Z,99265.20
2022-08-19T12:56:56.805Z,99265.83
2022-08-19T12:57:59.307Z,99269.50
2022-08-19T12:59:01.882Z,99266.13
2022-08-19T13:00:04.782Z,99262.30
2022-08-19T13:01:07.198Z,99267.88
2022-08-19T13:02:09.646Z,99259.77
2022-08-19T13:03:13.803Z,99263.65
2022-08-19T13:04:17.923Z,99266.34
2022-08-19T13:05:20.424Z,99269.39
2022-08-19T13:06:22.855Z,99277.30
2022-08-19T13:07:25.333Z,99268.34
2022-08-19T13:08:27.867Z,99268.77
2022-08-19T13:09:30.439Z,99270.76
2022-08-19T13:10:34.554Z,99272.84
2022-08-19T13:11:36.979Z,99270.49
2022-08-19T13:12:39.565Z,99274.78
2022-08-19T13:13:42.062Z,99274.25
2022-08-19T13:14:44.664Z,99278.13
2022-08-19T13:15:47.267Z,99277.11
2022-08-19T13:16:49.831Z,99279.95
2022-08-19T13:17:52.351Z,99278.30
2022-08-19T13:18:56.536Z,99274.45
2022-08-19T13:19:58.995Z,99271.67
2022-08-19T13:21:01.552Z,99274.89
2022-08-19T13:22:04.091Z,99275.00
2022-08-19T13:23:06.566Z,99276.28
2022-08-19T13:24:10.694Z,99279.35
2022-08-19T13:25:14.658Z,99281.98
2022-08-19T13:26:20.047Z,99278.66
2022-08-19T13:27:22.284Z,99275.84
2022-08-19T13:28:28.966Z,99281.03
2022-08-19T13:29:27.387Z,99283.50
2022-08-19T13:30:29.923Z,99284.14
2022-08-19T13:31:35.422Z,99289.46
2022-08-19T13:32:37.806Z,99285.44
2022-08-19T13:33:40.297Z,99291.08
2022-08-19T13:34:42.809Z,99294.27
2022-08-19T13:35:45.405Z,99296.22
2022-08-19T13:36:48.039Z,99296.14
2022-08-19T13:37:50.674Z,99288.79
2022-08-19T13:38:53.204Z,99287.92
2022-08-19T13:39:55.827Z,99284.59
2022-08-19T13:40:59.392Z,99278.06
2022-08-19T13:42:02.884Z,99285.42
2022-08-19T13:43:12.390Z,99286.08
2022-08-19T13:44:10.956Z,99282.91
2022-08-19T13:45:13.345Z,99285.86
2022-08-19T13:46:18.808Z,99285.09
2022-08-19T13:47:23.768Z,99287.56
2022-08-19T13:48:29.908Z,99283.97
2022-08-19T13:49:33.726Z,99287.79
2022-08-19T13:50:36.326Z,99282.03
2022-08-19T13:51:38.794Z,99275.50
2022-08-19T13:52:42.923Z,99281.05
2022-08-19T13:53:48.108Z,99275.05
2022-08-19T13:54:49.307Z,99282.97
2022-08-19T13:55:54.848Z,99282.99
2022-08-19T13:57:00.067Z,99279.28
2022-08-19T13:58:04.060Z,99273.13
2022-08-19T13:59:06.397Z,99278.61
2022-08-19T14:00:10.547Z,99279.25
2022-08-19T14:01:13.133Z,99288.17
2022-08-19T14:02:15.582Z,99290.14
2022-08-19T14:03:18.173Z,99289.94
2022-08-19T14:04:22.389Z,99290.02
2022-08-19T14:05:24.792Z,99289.80
2022-08-19T14:06:27.315Z,99290.23
2022-08-19T14:07:30.099Z,99294.03
2022-08-19T14:08:35.573Z,99295.03
2022-08-19T14:09:40.463Z,99297.20
2022-08-19T14:10:42.847Z,99296.38
2022-08-19T14:11:46.974Z,99297.25
2022-08-19T14:12:49.438Z,99299.57
2022-08-19T14:13:53.572Z,99299.02
2022-08-19T14:14:56.093Z,99296.81
2022-08-19T14:16:00.215Z,99293.18
2022-08-19T14:17:02.686Z,99293.56
2022-08-19T14:18:05.266Z,99294.52
2022-08-19T14:19:07.886Z,99299.97
2022-08-19T14:20:11.305Z,99300.32
2022-08-19T14:21:13.099Z,99303.53
2022-08-19T14:22:18.553Z,99304.49
2022-08-19T14:23:19.722Z,99300.01
2022-08-19T14:24:22.248Z,99302.20
2022-08-19T14:25:24.975Z,99298.98
2022-08-19T14:26:27.450Z,99297.77
2022-08-19T14:27:30.027Z,99298.73
2022-08-19T14:28:32.503Z,99293.20
2022-08-19T14:29:35.087Z,99293.30
2022-08-19T14:30:37.647Z,99295.95
2022-08-19T14:31:40.209Z,99297.20
2022-08-19T14:32:44.402Z,99293.09
2022-08-19T14:33:46.758Z,99282.78
2022-08-19T14:34:49.221Z,99284.96
2022-08-19T14:35:53.371Z,99285.38
2022-08-19T14:36:57.455Z,99282.83
2022-08-19T14:38:01.672Z,99282.13
2022-08-19T14:39:03.750Z,99281.48
2022-08-19T14:40:06.399Z,99278.17
2022-08-19T14:41:08.812Z,99278.36
2022-08-19T14:42:11.689Z,99276.16
2022-08-19T14:43:15.568Z,99273.05
2022-08-19T14:44:18.085Z,99270.20
2022-08-19T14:45:20.604Z,99266.44
2022-08-19T14:46:25.096Z,99266.82
2022-08-19T14:47:28.958Z,99265.61
2022-08-19T14:48:32.942Z,99261.13
2022-08-19T14:49:41.713Z,99265.38
2022-08-19T14:50:44.135Z,99257.46
2022-08-19T14:51:46.612Z,99256.92
2022-08-19T14:52:51.020Z,99261.00
2022-08-19T14:53:54.757Z,99253.82
2022-08-19T14:55:00.899Z,99254.25
2022-08-19T14:56:03.393Z,99254.81
2022-08-19T14:57:07.515Z,99253.95
2022-08-19T14:58:28.739Z,99254.97
2022-08-19T14:59:15.659Z,99255.39
2022-08-19T15:00:19.234Z,99247.84
2022-08-19T15:01:22.061Z,99244.27
2022-08-19T15:02:34.351Z,99247.34
2022-08-19T15:03:27.119Z,99243.97
2022-08-19T15:04:33.316Z,99239.36
2022-08-19T15:05:33.804Z,99239.66
2022-08-19T15:06:37.976Z,99238.74
2022-08-19T15:07:40.424Z,99230.32
2022-08-19T15:08:42.954Z,99228.39
2022-08-19T15:09:45.553Z,99231.41
2022-08-19T15:10:48.086Z,99223.25
2022-08-19T15:11:52.463Z,99223.31
2022-08-19T15:12:57.747Z,99224.86
2022-08-19T15:13:59.853Z,99225.33
2022-08-19T15:15:04.038Z,99224.36
2022-08-19T15:16:06.659Z,99218.83
2022-08-19T15:17:09.186Z,99224.13
2022-08-19T15:18:11.755Z,99222.05
2022-08-19T15:19:14.367Z,99227.63
2022-08-19T15:20:18.554Z,99220.36
2022-08-19T15:21:23.827Z,99228.14
2022-08-19T15:22:25.083Z,99231.73
2022-08-19T15:23:27.647Z,99223.65
2022-08-19T15:24:30.237Z,99224.94
2022-08-19T15:25:32.746Z,99225.00
2022-08-19T15:26:35.298Z,99230.85
2022-08-19T15:27:37.928Z,99233.23
2022-08-19T15:28:42.058Z,99234.52
2022-08-19T15:29:44.445Z,99231.38
2022-08-19T15:30:46.962Z,99232.61
2022-08-19T15:31:54.466Z,99231.16
2022-08-19T15:33:01.666Z,99233.98
2022-08-19T15:34:05.461Z,99233.10
2022-08-19T15:35:07.845Z,99234.38
2022-08-19T15:36:10.346Z,99234.11
2022-08-19T15:37:12.936Z,99236.02
2022-08-19T15:38:15.473Z,99242.80
2022-08-19T15:39:17.957Z,99236.57
2022-08-19T15:40:22.199Z,99237.69
2022-08-19T15:41:24.539Z,99235.61
2022-08-19T15:42:29.744Z,99234.16
2022-08-19T15:43:31.163Z,99238.53
2022-08-19T15:44:33.666Z,99243.27
2022-08-19T15:45:36.218Z,99243.05
2022-08-19T15:46:40.446Z,99246.97
2022-08-19T15:47:42.799Z,99246.13
2022-08-19T15:48:45.426Z,99240.48
2022-08-19T15:49:47.925Z,99243.88
2022-08-19T15:50:50.483Z,99241.06
2022-08-19T15:51:53.087Z,99240.77
2022-08-19T15:52:57.198Z,99244.21
2022-08-19T15:53:59.638Z,99247.09
2022-08-19T15:55:03.693Z,99244.66
2022-08-19T15:56:06.153Z,99244.81
2022-08-19T15:57:08.721Z,99241.84
2022-08-19T15:58:20.515Z,99246.11
2022-08-19T15:59:15.274Z,99245.78
2022-08-19T16:00:19.454Z,99250.28
2022-08-19T16:01:21.922Z,99249.23
2022-08-19T16:02:24.419Z,99251.25
2022-08-19T16:03:27.008Z,99247.45
2022-08-19T16:04:29.544Z,99252.20
2022-08-19T16:05:32.155Z,99259.30
2022-08-19T16:06:36.298Z,99255.15
2022-08-19T16:07:38.672Z,99249.22
2022-08-19T16:08:47.934Z,99244.66
2022-08-19T16:09:43.998Z,99245.09
2022-08-19T16:10:46.489Z,99249.92
2022-08-19T16:11:56.409Z,99245.64
2022-08-19T16:12:53.154Z,99249.63
2022-08-19T16:13:55.553Z,99245.91
2022-08-19T16:14:58.127Z,99243.27
2022-08-19T16:16:00.687Z,99247.66
2022-08-19T16:17:03.327Z,99246.65
2022-08-19T16:18:05.868Z,99244.72
2022-08-19T16:19:10.252Z,99245.69
2022-08-19T16:20:12.508Z,99244.77
2022-08-19T16:21:15.123Z,99244.03
2022-08-19T16:22:17.625Z,99243.73
2022-08-19T16:23:25.142Z,99250.53
2022-08-19T16:24:30.510Z,99252.45
2022-08-19T16:25:34.342Z,99252.20
2022-08-19T16:26:36.748Z,99249.82
2022-08-19T16:27:39.246Z,99251.03
2022-08-19T16:28:43.309Z,99252.98
2022-08-19T16:29:45.704Z,99255.48
2022-08-19T16:30:50.970Z,99259.99
2022-08-19T16:31:52.179Z,99257.09
2022-08-19T16:32:56.259Z,99257.55
2022-08-19T16:34:00.279Z,99255.85
2022-08-19T16:35:06.457Z,99259.45
2022-08-19T16:36:07.118Z,99258.63
2022-08-19T16:37:07.768Z,99256.41
2022-08-19T16:38:11.832Z,99257.67
2022-08-19T16:39:15.894Z,99263.84
2022-08-19T16:40:18.337Z,99259.87
2022-08-19T16:41:20.804Z,99261.83
2022-08-19T16:42:23.313Z,99264.16
2022-08-19T16:43:25.820Z,99264.33
2022-08-19T16:44:30.128Z,99264.85
2022-08-19T16:45:32.444Z,99266.45
2022-08-19T16:46:36.035Z,99271.02
2022-08-19T16:47:38.509Z,99267.73
2022-08-19T16:48:42.657Z,99266.22
2022-08-19T16:49:52.096Z,99271.02
2022-08-19T16:50:49.857Z,99272.11
2022-08-19T16:51:51.694Z,99271.69
2022-08-19T16:52:55.884Z,99269.70
2022-08-19T16:53:59.869Z,99271.70
2022-08-19T16:55:03.946Z,99272.19
2022-08-19T16:56:06.440Z,99272.38
2022-08-19T16:57:11.185Z,99273.08
2022-08-19T16:58:14.617Z,99269.88
2022-08-19T16:59:17.016Z,99275.31
2022-08-19T17:00:19.573Z,99271.16
2022-08-19T17:01:22.136Z,99278.48
2022-08-19T17:02:29.505Z,99276.67
2022-08-19T17:03:36.119Z,99272.31
2022-08-19T17:04:35.529Z,99273.48
2022-08-19T17:05:39.372Z,99272.98
2022-08-19T17:06:41.841Z,99273.91
2022-08-19T17:07:45.930Z,99273.86
2022-08-19T17:08:48.911Z,99273.31
2022-08-19T17:09:50.806Z,99274.30
2022-08-19T17:11:16.833Z,99274.52
2022-08-19T17:11:55.810Z,99272.74
2022-08-19T17:12:59.937Z,99269.59
2022-08-19T17:14:02.284Z,99272.89
2022-08-19T17:15:04.845Z,99270.63
2022-08-19T17:16:07.320Z,99269.71
2022-08-19T17:17:09.840Z,99271.84
2022-08-19T17:18:12.331Z,99267.75
2022-08-19T17:19:16.542Z,99274.91
2022-08-19T17:20:18.981Z,99268.91
2022-08-19T17:21:21.481Z,99272.67
2022-08-19T17:22:23.987Z,99271.59
2022-08-19T17:23:36.770Z,99276.67
2022-08-19T17:24:30.662Z,99275.49
2022-08-19T17:25:34.632Z,99275.59
2022-08-19T17:26:38.568Z,99273.57
2022-08-19T17:27:40.990Z,99275.22
2022-08-19T17:28:43.467Z,99270.59
2022-08-19T17:29:47.103Z,99272.02
2022-08-19T17:30:50.112Z,99275.02
2022-08-19T17:31:52.496Z,99272.95
2022-08-19T17:32:54.959Z,99272.16
2022-08-19T17:33:57.533Z,99274.02
2022-08-19T17:35:01.635Z,99272.89
2022-08-19T17:36:04.019Z,99273.34
2022-08-19T17:37:06.593Z,99276.43
2022-08-19T17:38:09.120Z,99276.50
2022-08-19T17:39:11.628Z,99276.55
2022-08-19T17:40:14.255Z,99276.43
2022-08-19T17:41:16.750Z,99279.70
2022-08-19T17:42:19.268Z,99276.59
2022-08-19T17:43:32.290Z,99281.30
2022-08-19T17:44:24.328Z,99280.30
2022-08-19T17:45:28.489Z,99280.06
2022-08-19T17:46:30.846Z,99284.66
2022-08-19T17:47:33.326Z,99282.09
2022-08-19T17:48:37.450Z,99283.08
2022-08-19T17:49:39.871Z,99282.93
2022-08-19T17:50:42.359Z,99283.69
2022-08-19T17:51:44.887Z,99282.23
2022-08-19T17:52:47.437Z,99282.39
2022-08-19T17:53:51.585Z,99283.70
2022-08-19T17:54:54.022Z,99283.42
2022-08-19T17:55:58.161Z,99284.38
2022-08-19T17:57:00.568Z,99288.35
2022-08-19T17:58:04.678Z,99286.54
2022-08-19T17:59:11.787Z,99288.84
2022-08-19T18:00:12.722Z,99290.66
2022-08-19T18:01:15.225Z,99286.93
2022-08-19T18:02:17.898Z,99289.45
2022-08-19T18:03:21.916Z,99286.38
2022-08-19T18:04:26.016Z,99288.48
2022-08-19T18:05:30.096Z,99286.88
2022-08-19T18:06:32.558Z,99289.78
2022-08-19T18:07:35.056Z,99289.92
2022-08-19T18:08:37.579Z,99293.84
2022-08-19T18:09:42.954Z,99291.66
2022-08-19T18:10:44.447Z,99290.81
2022-08-19T18:11:49.427Z,99296.47
2022-08-19T18:12:51.173Z,99297.81
2022-08-19T18:13:55.310Z,99299.25
2022-08-19T18:14:59.324Z,99303.90
2022-08-19T18:16:01.611Z,99304.88
2022-08-19T18:17:04.112Z,99304.53
2022-08-19T18:18:12.770Z,99305.75
2022-08-19T18:19:09.183Z,99303.69
2022-08-19T18:20:13.486Z,99302.42
2022-08-19T18:21:15.889Z,99303.00
2022-08-19T18:22:18.323Z,99299.23
2022-08-19T18:23:41.777Z,99305.83
2022-08-19T18:24:24.978Z,99307.34
2022-08-19T18:25:27.376Z,99309.98
2022-08-19T18:26:29.866Z,99309.91
2022-08-19T18:27:34.032Z,99309.50
2022-08-19T18:28:38.105Z,99311.63
2022-08-19T18:38:08.052Z,99319.55
2022-08-19T18:39:10.652Z,99319.59
2022-08-19T18:48:44.043Z,99337.52
2022-08-19T18:58:20.766Z,99359.36
2022-08-19T19:07:56.458Z,99373.33
2022-08-19T19:17:27.778Z,99387.09
2022-08-19T19:27:00.519Z,99393.80
2022-08-19T19:36:35.799Z,99404.92
2022-08-19T19:46:08.211Z,99415.23
2022-08-19T19:55:45.439Z,99423.49
2022-08-19T20:05:16.330Z,99442.34
2022-08-19T20:14:51.832Z,99446.43
2022-08-19T20:24:24.481Z,99452.91
2022-08-19T20:33:58.976Z,99455.80
2022-08-19T20:43:32.775Z,99454.00
2022-08-19T20:53:07.489Z,99454.91
2022-08-19T21:02:43.589Z,99456.69
2022-08-19T21:12:16.287Z,99463.50
2022-08-19T21:21:51.321Z,99458.26
2022-08-19T21:31:27.603Z,99470.02
2022-08-19T21:41:00.439Z,99479.23
2022-08-19T21:50:36.414Z,99481.52
2022-08-19T22:00:11.189Z,99488.88
2022-08-19T22:09:45.748Z,99484.94
2022-08-19T22:19:18.655Z,99480.16
2022-08-19T22:28:55.110Z,99491.35
2022-08-19T22:38:28.494Z,99483.34
2022-08-19T22:39:31.078Z,99489.58
2022-08-19T22:49:07.010Z,99484.86
2022-08-19T22:58:41.467Z,99482.50
2022-08-19T23:08:14.403Z,99479.02
2022-08-19T23:17:49.172Z,99474.80
2022-08-19T23:27:25.205Z,99466.30
2022-08-19T23:36:59.536Z,99455.66
2022-08-19T23:46:34.464Z,99450.06